sim
Sign-in with your pilot id or email,
or register
Callsign
Passwort

Schedule Details

Flight Number: OEO6014
Departure: Frankfurt Airport (EDDF) at 04:45
Arrival: Fuerteventura Airport (GCFV) at 09:40

Weather Information
Getting current METAR information for EDDF 160250Z VRB02KT CAVOK M00/M01 Q1029 NOSIG
Getting current METAR information for GCFV 160300Z AUTO 27006KT 9999 NCD 13/11 Q1017

Schedule Frequency

Route Map